sensor_id;sensor_type;location;lat;lon;timestamp;temperature;humidity
74617;DHT22;63123;50.906;4.198;2024-03-02T00:00:49;17.00;56.40
74617;DHT22;63123;50.906;4.198;2024-03-02T00:03:15;17.00;56.30
74617;DHT22;63123;50.906;4.198;2024-03-02T00:05:40;17.00;56.30
74617;DHT22;63123;50.906;4.198;2024-03-02T00:08:06;17.00;56.40
74617;DHT22;63123;50.906;4.198;2024-03-02T00:10:39;17.00;56.30
74617;DHT22;63123;50.906;4.198;2024-03-02T00:13:07;17.00;56.30
74617;DHT22;63123;50.906;4.198;2024-03-02T00:18:04;17.00;56.20
74617;DHT22;63123;50.906;4.198;2024-03-02T00:20:30;17.00;56.20
74617;DHT22;63123;50.906;4.198;2024-03-02T00:23:03;17.00;56.20
74617;DHT22;63123;50.906;4.198;2024-03-02T00:28:14;17.00;56.80
74617;DHT22;63123;50.906;4.198;2024-03-02T00:30:57;17.00;56.20
74617;DHT22;63123;50.906;4.198;2024-03-02T00:33:25;17.00;56.10
74617;DHT22;63123;50.906;4.198;2024-03-02T00:35:51;17.00;56.20
74617;DHT22;63123;50.906;4.198;2024-03-02T00:38:16;17.00;56.20
74617;DHT22;63123;50.906;4.198;2024-03-02T00:40:42;17.00;56.20
74617;DHT22;63123;50.906;4.198;2024-03-02T00:45:45;17.00;56.20
74617;DHT22;63123;50.906;4.198;2024-03-02T00:48:11;17.00;56.10
74617;DHT22;63123;50.906;4.198;2024-03-02T00:50:36;17.00;56.70
74617;DHT22;63123;50.906;4.198;2024-03-02T00:53:02;17.00;56.20
74617;DHT22;63123;50.906;4.198;2024-03-02T00:55:27;17.00;56.10
74617;DHT22;63123;50.906;4.198;2024-03-02T00:57:53;17.00;56.00
74617;DHT22;63123;50.906;4.198;2024-03-02T01:00:19;17.00;56.10
74617;DHT22;63123;50.906;4.198;2024-03-02T01:02:44;17.00;56.10
74617;DHT22;63123;50.906;4.198;2024-03-02T01:05:11;17.00;56.10
74617;DHT22;63123;50.906;4.198;2024-03-02T01:07:37;17.00;56.10
74617;DHT22;63123;50.906;4.198;2024-03-02T01:10:03;17.00;56.10
74617;DHT22;63123;50.906;4.198;2024-03-02T01:12:29;17.00;56.10
74617;DHT22;63123;50.906;4.198;2024-03-02T01:14:54;17.00;56.10
74617;DHT22;63123;50.906;4.198;2024-03-02T01:17:20;17.00;56.10
74617;DHT22;63123;50.906;4.198;2024-03-02T01:19:45;17.00;56.10
74617;DHT22;63123;50.906;4.198;2024-03-02T01:22:10;17.00;56.10
74617;DHT22;63123;50.906;4.198;2024-03-02T01:24:36;17.00;56.20
74617;DHT22;63123;50.906;4.198;2024-03-02T01:27:01;17.00;56.10
74617;DHT22;63123;50.906;4.198;2024-03-02T01:29:27;17.00;56.10
74617;DHT22;63123;50.906;4.198;2024-03-02T01:31:52;17.00;56.10
74617;DHT22;63123;50.906;4.198;2024-03-02T01:34:18;17.00;56.20
74617;DHT22;63123;50.906;4.198;2024-03-02T01:36:44;17.00;56.10
74617;DHT22;63123;50.906;4.198;2024-03-02T01:39:09;17.00;56.20
74617;DHT22;63123;50.906;4.198;2024-03-02T01:41:35;16.90;56.00
74617;DHT22;63123;50.906;4.198;2024-03-02T01:44:01;17.00;56.10
74617;DHT22;63123;50.906;4.198;2024-03-02T01:46:26;17.00;56.10
74617;DHT22;63123;50.906;4.198;2024-03-02T01:48:52;17.00;56.10
74617;DHT22;63123;50.906;4.198;2024-03-02T01:51:17;17.00;56.20
74617;DHT22;63123;50.906;4.198;2024-03-02T01:53:43;17.00;56.30
74617;DHT22;63123;50.906;4.198;2024-03-02T01:56:08;17.00;56.20
74617;DHT22;63123;50.906;4.198;2024-03-02T01:58:34;16.90;56.00
74617;DHT22;63123;50.906;4.198;2024-03-02T02:00:59;17.00;56.10
74617;DHT22;63123;50.906;4.198;2024-03-02T02:03:25;17.00;56.00
74617;DHT22;63123;50.906;4.198;2024-03-02T02:05:50;17.00;56.00
74617;DHT22;63123;50.906;4.198;2024-03-02T02:08:16;16.90;55.90
74617;DHT22;63123;50.906;4.198;2024-03-02T02:10:41;17.00;56.00
74617;DHT22;63123;50.906;4.198;2024-03-02T02:13:07;17.00;56.00
74617;DHT22;63123;50.906;4.198;2024-03-02T02:15:33;16.90;56.00
74617;DHT22;63123;50.906;4.198;2024-03-02T02:18:01;17.00;56.10
74617;DHT22;63123;50.906;4.198;2024-03-02T02:20:27;17.00;56.10
74617;DHT22;63123;50.906;4.198;2024-03-02T02:22:59;17.00;56.00
74617;DHT22;63123;50.906;4.198;2024-03-02T02:25:25;17.00;56.00
74617;DHT22;63123;50.906;4.198;2024-03-02T02:27:51;17.00;56.00
74617;DHT22;63123;50.906;4.198;2024-03-02T02:30:21;17.00;56.00
74617;DHT22;63123;50.906;4.198;2024-03-02T02:32:47;17.00;56.00
74617;DHT22;63123;50.906;4.198;2024-03-02T02:35:12;17.00;56.00
74617;DHT22;63123;50.906;4.198;2024-03-02T02:37:38;17.00;56.00
74617;DHT22;63123;50.906;4.198;2024-03-02T02:40:04;17.00;56.10
74617;DHT22;63123;50.906;4.198;2024-03-02T02:42:30;17.00;56.10
74617;DHT22;63123;50.906;4.198;2024-03-02T02:44:55;17.00;56.10
74617;DHT22;63123;50.906;4.198;2024-03-02T02:47:21;17.00;56.00
74617;DHT22;63123;50.906;4.198;2024-03-02T02:49:46;17.00;56.10
74617;DHT22;63123;50.906;4.198;2024-03-02T02:52:12;17.00;56.50
74617;DHT22;63123;50.906;4.198;2024-03-02T02:54:37;17.00;56.00
74617;DHT22;63123;50.906;4.198;2024-03-02T02:57:03;17.00;55.90
74617;DHT22;63123;50.906;4.198;2024-03-02T02:59:29;17.00;56.00
74617;DHT22;63123;50.906;4.198;2024-03-02T03:01:54;17.00;55.90
74617;DHT22;63123;50.906;4.198;2024-03-02T03:04:19;17.00;55.90
74617;DHT22;63123;50.906;4.198;2024-03-02T03:06:45;17.00;55.80
74617;DHT22;63123;50.906;4.198;2024-03-02T03:09:11;17.00;55.80
74617;DHT22;63123;50.906;4.198;2024-03-02T03:11:37;17.00;55.80
74617;DHT22;63123;50.906;4.198;2024-03-02T03:14:02;17.00;55.80
74617;DHT22;63123;50.906;4.198;2024-03-02T03:16:28;17.00;55.80
74617;DHT22;63123;50.906;4.198;2024-03-02T03:18:53;17.00;55.80
74617;DHT22;63123;50.906;4.198;2024-03-02T03:21:19;17.00;55.70
74617;DHT22;63123;50.906;4.198;2024-03-02T03:23:44;17.00;55.80
74617;DHT22;63123;50.906;4.198;2024-03-02T03:26:10;17.00;55.80
74617;DHT22;63123;50.906;4.198;2024-03-02T03:28:36;17.00;55.80
74617;DHT22;63123;50.906;4.198;2024-03-02T03:31:01;17.00;55.70
74617;DHT22;63123;50.906;4.198;2024-03-02T03:33:27;17.00;55.80
74617;DHT22;63123;50.906;4.198;2024-03-02T03:35:53;17.00;55.80
74617;DHT22;63123;50.906;4.198;2024-03-02T03:38:18;17.00;55.70
74617;DHT22;63123;50.906;4.198;2024-03-02T03:40:44;17.00;55.60
74617;DHT22;63123;50.906;4.198;2024-03-02T03:43:10;17.00;55.60
74617;DHT22;63123;50.906;4.198;2024-03-02T03:45:35;17.00;55.80
74617;DHT22;63123;50.906;4.198;2024-03-02T03:48:02;17.00;55.70
74617;DHT22;63123;50.906;4.198;2024-03-02T03:50:27;17.00;55.80
74617;DHT22;63123;50.906;4.198;2024-03-02T03:52:53;17.00;55.70
74617;DHT22;63123;50.906;4.198;2024-03-02T03:55:18;16.90;55.70
74617;DHT22;63123;50.906;4.198;2024-03-02T03:57:44;17.00;55.70
74617;DHT22;63123;50.906;4.198;2024-03-02T04:00:09;17.00;55.60
74617;DHT22;63123;50.906;4.198;2024-03-02T04:02:35;17.00;55.60
74617;DHT22;63123;50.906;4.198;2024-03-02T04:05:01;17.00;55.60
74617;DHT22;63123;50.906;4.198;2024-03-02T04:07:30;17.00;55.60
74617;DHT22;63123;50.906;4.198;2024-03-02T04:09:55;17.00;55.60
74617;DHT22;63123;50.906;4.198;2024-03-02T04:12:21;17.00;55.60
74617;DHT22;63123;50.906;4.198;2024-03-02T04:14:47;17.00;55.60
74617;DHT22;63123;50.906;4.198;2024-03-02T04:17:12;17.00;55.60
74617;DHT22;63123;50.906;4.198;2024-03-02T04:19:38;17.00;55.60
74617;DHT22;63123;50.906;4.198;2024-03-02T04:22:04;17.00;55.50
74617;DHT22;63123;50.906;4.198;2024-03-02T04:24:29;16.90;55.40
74617;DHT22;63123;50.906;4.198;2024-03-02T04:26:55;17.00;55.50
74617;DHT22;63123;50.906;4.198;2024-03-02T04:29:21;17.00;55.50
74617;DHT22;63123;50.906;4.198;2024-03-02T04:31:46;17.00;55.50
74617;DHT22;63123;50.906;4.198;2024-03-02T04:34:12;17.00;55.40
74617;DHT22;63123;50.906;4.198;2024-03-02T04:36:37;17.00;55.60
74617;DHT22;63123;50.906;4.198;2024-03-02T04:39:03;17.00;55.50
74617;DHT22;63123;50.906;4.198;2024-03-02T04:41:28;17.00;55.50
74617;DHT22;63123;50.906;4.198;2024-03-02T04:43:54;17.00;55.50
74617;DHT22;63123;50.906;4.198;2024-03-02T04:46:19;17.00;55.50
74617;DHT22;63123;50.906;4.198;2024-03-02T04:48:45;17.00;55.50
74617;DHT22;63123;50.906;4.198;2024-03-02T04:51:10;17.00;55.60
74617;DHT22;63123;50.906;4.198;2024-03-02T04:53:36;17.00;55.50
74617;DHT22;63123;50.906;4.198;2024-03-02T04:56:01;17.00;55.40
74617;DHT22;63123;50.906;4.198;2024-03-02T04:58:36;16.90;55.30
74617;DHT22;63123;50.906;4.198;2024-03-02T05:01:01;17.00;55.40
74617;DHT22;63123;50.906;4.198;2024-03-02T05:03:27;17.00;55.40
74617;DHT22;63123;50.906;4.198;2024-03-02T05:05:52;17.00;55.30
74617;DHT22;63123;50.906;4.198;2024-03-02T05:08:18;17.00;55.30
74617;DHT22;63123;50.906;4.198;2024-03-02T05:10:43;17.00;55.30
74617;DHT22;63123;50.906;4.198;2024-03-02T05:13:09;17.00;55.20
74617;DHT22;63123;50.906;4.198;2024-03-02T05:15:34;16.90;55.20
74617;DHT22;63123;50.906;4.198;2024-03-02T05:18:00;16.90;55.20
74617;DHT22;63123;50.906;4.198;2024-03-02T05:20:28;17.00;55.40
74617;DHT22;63123;50.906;4.198;2024-03-02T05:22:53;17.00;55.60
74617;DHT22;63123;50.906;4.198;2024-03-02T05:25:19;17.00;55.80
74617;DHT22;63123;50.906;4.198;2024-03-02T05:27:44;16.90;55.50
74617;DHT22;63123;50.906;4.198;2024-03-02T05:30:10;16.90;55.90
74617;DHT22;63123;50.906;4.198;2024-03-02T05:32:35;17.00;55.80
74617;DHT22;63123;50.906;4.198;2024-03-02T05:35:01;16.90;55.90
74617;DHT22;63123;50.906;4.198;2024-03-02T05:37:28;17.00;55.90
74617;DHT22;63123;50.906;4.198;2024-03-02T05:39:53;16.90;55.90
74617;DHT22;63123;50.906;4.198;2024-03-02T05:42:19;17.00;56.00
74617;DHT22;63123;50.906;4.198;2024-03-02T05:44:44;17.00;55.70
74617;DHT22;63123;50.906;4.198;2024-03-02T05:47:10;16.90;55.80
74617;DHT22;63123;50.906;4.198;2024-03-02T05:49:35;17.00;55.70
74617;DHT22;63123;50.906;4.198;2024-03-02T05:52:01;17.00;55.60
74617;DHT22;63123;50.906;4.198;2024-03-02T05:54:26;17.00;55.70
74617;DHT22;63123;50.906;4.198;2024-03-02T05:56:52;17.00;55.40
74617;DHT22;63123;50.906;4.198;2024-03-02T05:59:17;17.00;55.30
74617;DHT22;63123;50.906;4.198;2024-03-02T06:01:43;17.00;55.40
74617;DHT22;63123;50.906;4.198;2024-03-02T06:04:09;17.00;55.40
74617;DHT22;63123;50.906;4.198;2024-03-02T06:06:36;17.00;55.40
74617;DHT22;63123;50.906;4.198;2024-03-02T06:09:02;17.00;55.70
74617;DHT22;63123;50.906;4.198;2024-03-02T06:11:36;17.00;55.30
74617;DHT22;63123;50.906;4.198;2024-03-02T06:14:02;17.00;55.30
74617;DHT22;63123;50.906;4.198;2024-03-02T06:16:28;17.00;55.30
74617;DHT22;63123;50.906;4.198;2024-03-02T06:18:55;17.00;55.30
74617;DHT22;63123;50.906;4.198;2024-03-02T06:21:25;17.00;55.40
74617;DHT22;63123;50.906;4.198;2024-03-02T06:23:51;17.00;55.40
74617;DHT22;63123;50.906;4.198;2024-03-02T06:26:17;17.00;55.40
74617;DHT22;63123;50.906;4.198;2024-03-02T06:28:43;17.00;55.50
74617;DHT22;63123;50.906;4.198;2024-03-02T06:31:08;16.90;55.00
74617;DHT22;63123;50.906;4.198;2024-03-02T06:33:34;17.00;55.20
74617;DHT22;63123;50.906;4.198;2024-03-02T06:35:59;17.00;54.90
74617;DHT22;63123;50.906;4.198;2024-03-02T06:38:25;16.90;54.80
74617;DHT22;63123;50.906;4.198;2024-03-02T06:40:51;17.00;54.80
74617;DHT22;63123;50.906;4.198;2024-03-02T06:43:16;17.00;54.90
74617;DHT22;63123;50.906;4.198;2024-03-02T06:45:42;17.00;54.90
74617;DHT22;63123;50.906;4.198;2024-03-02T06:48:07;17.00;54.70
74617;DHT22;63123;50.906;4.198;2024-03-02T06:50:33;16.90;54.90
74617;DHT22;63123;50.906;4.198;2024-03-02T06:52:58;17.00;54.70
74617;DHT22;63123;50.906;4.198;2024-03-02T06:55:24;17.00;54.60
74617;DHT22;63123;50.906;4.198;2024-03-02T06:57:50;17.00;54.70
74617;DHT22;63123;50.906;4.198;2024-03-02T07:00:15;17.00;54.80
74617;DHT22;63123;50.906;4.198;2024-03-02T07:02:43;17.00;54.80
74617;DHT22;63123;50.906;4.198;2024-03-02T07:05:09;17.00;55.00
74617;DHT22;63123;50.906;4.198;2024-03-02T07:07:35;17.00;54.60
74617;DHT22;63123;50.906;4.198;2024-03-02T07:10:02;17.00;55.00
74617;DHT22;63123;50.906;4.198;2024-03-02T07:12:28;17.00;55.20
74617;DHT22;63123;50.906;4.198;2024-03-02T07:14:53;17.00;55.30
74617;DHT22;63123;50.906;4.198;2024-03-02T07:17:20;17.00;55.50
74617;DHT22;63123;50.906;4.198;2024-03-02T07:19:46;16.90;55.30
74617;DHT22;63123;50.906;4.198;2024-03-02T07:22:11;17.00;55.60
74617;DHT22;63123;50.906;4.198;2024-03-02T07:24:43;17.00;55.60
74617;DHT22;63123;50.906;4.198;2024-03-02T07:27:09;17.00;55.60
74617;DHT22;63123;50.906;4.198;2024-03-02T07:29:35;17.00;55.70
74617;DHT22;63123;50.906;4.198;2024-03-02T07:32:00;17.00;55.70
74617;DHT22;63123;50.906;4.198;2024-03-02T07:34:26;16.90;55.70
74617;DHT22;63123;50.906;4.198;2024-03-02T07:36:51;17.00;55.70
74617;DHT22;63123;50.906;4.198;2024-03-02T07:39:17;17.00;55.80
74617;DHT22;63123;50.906;4.198;2024-03-02T07:41:42;17.00;55.60
74617;DHT22;63123;50.906;4.198;2024-03-02T07:44:09;17.00;55.50
74617;DHT22;63123;50.906;4.198;2024-03-02T07:46:34;17.00;55.30
74617;DHT22;63123;50.906;4.198;2024-03-02T07:49:00;17.00;55.40
74617;DHT22;63123;50.906;4.198;2024-03-02T07:51:25;16.90;55.20
74617;DHT22;63123;50.906;4.198;2024-03-02T07:53:51;17.00;55.30
74617;DHT22;63123;50.906;4.198;2024-03-02T07:56:17;17.00;55.20
74617;DHT22;63123;50.906;4.198;2024-03-02T07:58:47;17.00;55.30
74617;DHT22;63123;50.906;4.198;2024-03-02T08:01:14;17.00;55.30
74617;DHT22;63123;50.906;4.198;2024-03-02T08:03:39;17.00;56.00
74617;DHT22;63123;50.906;4.198;2024-03-02T08:06:07;17.00;55.40
74617;DHT22;63123;50.906;4.198;2024-03-02T08:08:32;17.00;55.30
74617;DHT22;63123;50.906;4.198;2024-03-02T08:10:58;17.00;55.10
74617;DHT22;63123;50.906;4.198;2024-03-02T08:13:23;16.90;55.30
74617;DHT22;63123;50.906;4.198;2024-03-02T08:15:49;17.00;55.20
74617;DHT22;63123;50.906;4.198;2024-03-02T08:18:14;17.00;55.00
74617;DHT22;63123;50.906;4.198;2024-03-02T08:20:40;17.00;55.10
74617;DHT22;63123;50.906;4.198;2024-03-02T08:23:05;17.00;54.80
74617;DHT22;63123;50.906;4.198;2024-03-02T08:25:31;17.00;54.70
74617;DHT22;63123;50.906;4.198;2024-03-02T08:27:57;17.00;54.60
74617;DHT22;63123;50.906;4.198;2024-03-02T08:30:23;17.00;54.70
74617;DHT22;63123;50.906;4.198;2024-03-02T08:32:48;17.00;54.60
74617;DHT22;63123;50.906;4.198;2024-03-02T08:35:14;17.00;54.60
74617;DHT22;63123;50.906;4.198;2024-03-02T08:37:39;17.00;54.60
74617;DHT22;63123;50.906;4.198;2024-03-02T08:40:07;17.00;54.60
74617;DHT22;63123;50.906;4.198;2024-03-02T08:42:32;17.00;54.60
74617;DHT22;63123;50.906;4.198;2024-03-02T08:44:58;17.00;54.60
74617;DHT22;63123;50.906;4.198;2024-03-02T08:47:26;17.00;54.50
74617;DHT22;63123;50.906;4.198;2024-03-02T08:49:52;17.00;54.50
74617;DHT22;63123;50.906;4.198;2024-03-02T08:52:17;17.00;54.40
74617;DHT22;63123;50.906;4.198;2024-03-02T08:54:43;17.00;54.30
74617;DHT22;63123;50.906;4.198;2024-03-02T08:57:08;17.00;54.00
74617;DHT22;63123;50.906;4.198;2024-03-02T08:59:34;17.00;54.00
74617;DHT22;63123;50.906;4.198;2024-03-02T09:01:59;17.00;54.00
74617;DHT22;63123;50.906;4.198;2024-03-02T09:04:25;17.00;53.90
74617;DHT22;63123;50.906;4.198;2024-03-02T09:06:50;17.00;53.90
74617;DHT22;63123;50.906;4.198;2024-03-02T09:09:16;17.00;54.00
74617;DHT22;63123;50.906;4.198;2024-03-02T09:11:41;17.00;53.90
74617;DHT22;63123;50.906;4.198;2024-03-02T09:14:07;17.00;54.00
74617;DHT22;63123;50.906;4.198;2024-03-02T09:16:32;17.00;54.20
74617;DHT22;63123;50.906;4.198;2024-03-02T09:18:58;17.00;54.30
74617;DHT22;63123;50.906;4.198;2024-03-02T09:21:23;17.00;54.10
74617;DHT22;63123;50.906;4.198;2024-03-02T09:23:50;17.00;53.90
74617;DHT22;63123;50.906;4.198;2024-03-02T09:26:16;17.00;54.10
74617;DHT22;63123;50.906;4.198;2024-03-02T09:28:45;17.00;54.80
74617;DHT22;63123;50.906;4.198;2024-03-02T09:31:10;17.00;54.70
74617;DHT22;63123;50.906;4.198;2024-03-02T09:33:37;17.00;54.50
74617;DHT22;63123;50.906;4.198;2024-03-02T09:36:04;17.00;54.80
74617;DHT22;63123;50.906;4.198;2024-03-02T09:38:31;17.00;55.00
74617;DHT22;63123;50.906;4.198;2024-03-02T09:40:57;17.00;55.10
74617;DHT22;63123;50.906;4.198;2024-03-02T09:43:22;17.00;55.10
74617;DHT22;63123;50.906;4.198;2024-03-02T09:45:48;17.00;55.30
74617;DHT22;63123;50.906;4.198;2024-03-02T09:48:14;17.10;55.30
74617;DHT22;63123;50.906;4.198;2024-03-02T09:50:43;17.00;55.50
74617;DHT22;63123;50.906;4.198;2024-03-02T09:53:09;17.10;55.70
74617;DHT22;63123;50.906;4.198;2024-03-02T09:55:35;17.10;55.70
74617;DHT22;63123;50.906;4.198;2024-03-02T09:58:01;17.00;55.10
74617;DHT22;63123;50.906;4.198;2024-03-02T10:00:26;17.00;54.90
74617;DHT22;63123;50.906;4.198;2024-03-02T10:02:52;17.00;54.70
74617;DHT22;63123;50.906;4.198;2024-03-02T10:05:26;17.00;54.90
74617;DHT22;63123;50.906;4.198;2024-03-02T10:08:01;17.00;54.60
74617;DHT22;63123;50.906;4.198;2024-03-02T10:10:37;17.00;54.80
74617;DHT22;63123;50.906;4.198;2024-03-02T10:13:08;17.10;55.00
74617;DHT22;63123;50.906;4.198;2024-03-02T10:15:34;17.10;54.70
74617;DHT22;63123;50.906;4.198;2024-03-02T10:18:00;17.00;54.70
74617;DHT22;63123;50.906;4.198;2024-03-02T10:20:26;17.00;54.60
74617;DHT22;63123;50.906;4.198;2024-03-02T10:22:53;17.00;54.50
74617;DHT22;63123;50.906;4.198;2024-03-02T10:25:31;17.00;54.40
74617;DHT22;63123;50.906;4.198;2024-03-02T10:28:00;17.00;54.20
74617;DHT22;63123;50.906;4.198;2024-03-02T10:30:27;17.10;54.30
74617;DHT22;63123;50.906;4.198;2024-03-02T10:32:53;17.00;54.00
74617;DHT22;63123;50.906;4.198;2024-03-02T10:35:19;17.10;54.10
74617;DHT22;63123;50.906;4.198;2024-03-02T10:37:44;17.00;54.00
74617;DHT22;63123;50.906;4.198;2024-03-02T10:40:10;17.10;54.10
74617;DHT22;63123;50.906;4.198;2024-03-02T10:42:37;17.10;54.10
74617;DHT22;63123;50.906;4.198;2024-03-02T10:45:03;17.00;53.90
74617;DHT22;63123;50.906;4.198;2024-03-02T10:47:29;17.00;53.70
74617;DHT22;63123;50.906;4.198;2024-03-02T10:49:56;17.00;53.80
74617;DHT22;63123;50.906;4.198;2024-03-02T10:52:23;17.00;53.70
74617;DHT22;63123;50.906;4.198;2024-03-02T10:54:48;17.00;54.00
74617;DHT22;63123;50.906;4.198;2024-03-02T10:57:14;17.00;54.00
74617;DHT22;63123;50.906;4.198;2024-03-02T10:59:46;17.00;53.80
74617;DHT22;63123;50.906;4.198;2024-03-02T11:02:16;17.00;53.80
74617;DHT22;63123;50.906;4.198;2024-03-02T11:04:42;17.00;53.60
74617;DHT22;63123;50.906;4.198;2024-03-02T11:07:10;17.10;53.70
74617;DHT22;63123;50.906;4.198;2024-03-02T11:09:40;17.00;53.60
74617;DHT22;63123;50.906;4.198;2024-03-02T11:14:50;17.00;53.60
74617;DHT22;63123;50.906;4.198;2024-03-02T11:17:17;17.10;53.90
74617;DHT22;63123;50.906;4.198;2024-03-02T11:19:42;17.00;53.70
74617;DHT22;63123;50.906;4.198;2024-03-02T11:22:08;17.00;53.60
74617;DHT22;63123;50.906;4.198;2024-03-02T11:24:34;17.00;53.80
74617;DHT22;63123;50.906;4.198;2024-03-02T11:27:03;17.00;53.50
74617;DHT22;63123;50.906;4.198;2024-03-02T11:32:12;17.00;53.40
74617;DHT22;63123;50.906;4.198;2024-03-02T11:34:39;17.00;53.40
74617;DHT22;63123;50.906;4.198;2024-03-02T11:37:10;17.00;53.30
74617;DHT22;63123;50.906;4.198;2024-03-02T11:39:36;17.00;53.40
74617;DHT22;63123;50.906;4.198;2024-03-02T11:42:01;17.00;53.90
74617;DHT22;63123;50.906;4.198;2024-03-02T11:44:28;17.00;53.40
74617;DHT22;63123;50.906;4.198;2024-03-02T11:47:05;17.00;53.40
74617;DHT22;63123;50.906;4.198;2024-03-02T11:52:06;17.00;53.60
74617;DHT22;63123;50.906;4.198;2024-03-02T11:54:32;17.00;53.50
74617;DHT22;63123;50.906;4.198;2024-03-02T11:57:01;17.00;53.50
74617;DHT22;63123;50.906;4.198;2024-03-02T11:59:27;17.00;53.50
74617;DHT22;63123;50.906;4.198;2024-03-02T12:01:53;17.00;53.40
74617;DHT22;63123;50.906;4.198;2024-03-02T12:04:19;17.00;53.40
74617;DHT22;63123;50.906;4.198;2024-03-02T12:06:44;17.10;53.50
74617;DHT22;63123;50.906;4.198;2024-03-02T12:09:11;17.00;53.30
74617;DHT22;63123;50.906;4.198;2024-03-02T12:11:37;17.00;53.40
74617;DHT22;63123;50.906;4.198;2024-03-02T12:14:03;17.00;53.40
74617;DHT22;63123;50.906;4.198;2024-03-02T12:16:29;17.00;53.40
74617;DHT22;63123;50.906;4.198;2024-03-02T12:18:55;17.00;53.50
74617;DHT22;63123;50.906;4.198;2024-03-02T12:21:20;17.00;53.40
74617;DHT22;63123;50.906;4.198;2024-03-02T12:23:46;17.00;53.40
74617;DHT22;63123;50.906;4.198;2024-03-02T12:26:11;17.00;53.50
74617;DHT22;63123;50.906;4.198;2024-03-02T12:28:37;17.00;53.50
74617;DHT22;63123;50.906;4.198;2024-03-02T12:31:03;17.10;53.60
74617;DHT22;63123;50.906;4.198;2024-03-02T12:33:28;17.10;53.70
74617;DHT22;63123;50.906;4.198;2024-03-02T12:35:56;17.10;54.20
74617;DHT22;63123;50.906;4.198;2024-03-02T12:38:22;17.00;53.60
74617;DHT22;63123;50.906;4.198;2024-03-02T12:40:51;17.10;53.80
74617;DHT22;63123;50.906;4.198;2024-03-02T12:43:16;17.00;53.70
74617;DHT22;63123;50.906;4.198;2024-03-02T12:45:42;17.00;53.70
74617;DHT22;63123;50.906;4.198;2024-03-02T12:48:07;17.00;53.70
74617;DHT22;63123;50.906;4.198;2024-03-02T12:50:33;17.00;53.70
74617;DHT22;63123;50.906;4.198;2024-03-02T12:52:59;17.10;53.60
74617;DHT22;63123;50.906;4.198;2024-03-02T12:55:24;17.00;53.60
74617;DHT22;63123;50.906;4.198;2024-03-02T12:57:51;17.00;53.70
74617;DHT22;63123;50.906;4.198;2024-03-02T13:00:17;17.00;53.60
74617;DHT22;63123;50.906;4.198;2024-03-02T13:02:45;17.00;53.60
74617;DHT22;63123;50.906;4.198;2024-03-02T13:05:11;17.00;53.60
74617;DHT22;63123;50.906;4.198;2024-03-02T13:07:39;17.10;53.60
74617;DHT22;63123;50.906;4.198;2024-03-02T13:10:06;17.00;53.60
74617;DHT22;63123;50.906;4.198;2024-03-02T13:12:34;17.00;53.70
74617;DHT22;63123;50.906;4.198;2024-03-02T13:15:00;17.00;53.60
74617;DHT22;63123;50.906;4.198;2024-03-02T13:17:25;17.00;53.60
74617;DHT22;63123;50.906;4.198;2024-03-02T13:19:52;17.10;53.70
74617;DHT22;63123;50.906;4.198;2024-03-02T13:22:20;17.00;53.60
74617;DHT22;63123;50.906;4.198;2024-03-02T13:24:47;17.00;53.70
74617;DHT22;63123;50.906;4.198;2024-03-02T13:27:12;17.00;53.50
74617;DHT22;63123;50.906;4.198;2024-03-02T13:29:38;17.00;53.40
74617;DHT22;63123;50.906;4.198;2024-03-02T13:32:03;17.00;53.50
74617;DHT22;63123;50.906;4.198;2024-03-02T13:34:29;17.10;53.70
74617;DHT22;63123;50.906;4.198;2024-03-02T13:36:55;17.00;53.60
74617;DHT22;63123;50.906;4.198;2024-03-02T13:39:20;17.00;53.60
74617;DHT22;63123;50.906;4.198;2024-03-02T13:41:46;17.00;53.70
74617;DHT22;63123;50.906;4.198;2024-03-02T13:44:20;17.00;53.70
74617;DHT22;63123;50.906;4.198;2024-03-02T13:46:47;17.10;53.60
74617;DHT22;63123;50.906;4.198;2024-03-02T13:49:13;17.10;53.80
74617;DHT22;63123;50.906;4.198;2024-03-02T13:51:39;17.00;53.80
74617;DHT22;63123;50.906;4.198;2024-03-02T13:54:05;17.00;53.80
74617;DHT22;63123;50.906;4.198;2024-03-02T13:56:31;17.00;53.80
74617;DHT22;63123;50.906;4.198;2024-03-02T13:58:58;17.00;53.70
74617;DHT22;63123;50.906;4.198;2024-03-02T14:01:23;17.00;53.80
74617;DHT22;63123;50.906;4.198;2024-03-02T14:03:49;17.00;53.80
74617;DHT22;63123;50.906;4.198;2024-03-02T14:06:14;17.00;53.80
74617;DHT22;63123;50.906;4.198;2024-03-02T14:08:40;17.00;53.80
74617;DHT22;63123;50.906;4.198;2024-03-02T14:11:05;17.00;53.90
74617;DHT22;63123;50.906;4.198;2024-03-02T14:13:31;17.00;53.90
74617;DHT22;63123;50.906;4.198;2024-03-02T14:15:56;17.00;53.90
74617;DHT22;63123;50.906;4.198;2024-03-02T14:18:23;17.00;53.90
74617;DHT22;63123;50.906;4.198;2024-03-02T14:20:49;17.00;54.00
74617;DHT22;63123;50.906;4.198;2024-03-02T14:23:20;17.00;54.00
74617;DHT22;63123;50.906;4.198;2024-03-02T14:25:46;17.00;54.30
74617;DHT22;63123;50.906;4.198;2024-03-02T14:28:13;17.00;54.30
74617;DHT22;63123;50.906;4.198;2024-03-02T14:30:38;17.00;54.40
74617;DHT22;63123;50.906;4.198;2024-03-02T14:33:04;17.00;54.50
74617;DHT22;63123;50.906;4.198;2024-03-02T14:35:29;17.00;54.60
74617;DHT22;63123;50.906;4.198;2024-03-02T14:37:55;17.00;54.60
74617;DHT22;63123;50.906;4.198;2024-03-02T14:40:22;17.00;54.60
74617;DHT22;63123;50.906;4.198;2024-03-02T14:42:50;17.00;54.50
74617;DHT22;63123;50.906;4.198;2024-03-02T14:45:16;17.00;54.50
74617;DHT22;63123;50.906;4.198;2024-03-02T14:47:41;17.00;54.40
74617;DHT22;63123;50.906;4.198;2024-03-02T14:50:07;17.00;54.50
74617;DHT22;63123;50.906;4.198;2024-03-02T14:52:34;17.00;54.40
74617;DHT22;63123;50.906;4.198;2024-03-02T14:54:59;17.00;54.30
74617;DHT22;63123;50.906;4.198;2024-03-02T14:57:25;17.00;54.40
74617;DHT22;63123;50.906;4.198;2024-03-02T14:59:50;17.00;54.60
74617;DHT22;63123;50.906;4.198;2024-03-02T15:02:16;17.00;54.30
74617;DHT22;63123;50.906;4.198;2024-03-02T15:04:41;17.00;54.40
74617;DHT22;63123;50.906;4.198;2024-03-02T15:07:08;17.00;54.40
74617;DHT22;63123;50.906;4.198;2024-03-02T15:09:34;17.00;54.30
74617;DHT22;63123;50.906;4.198;2024-03-02T15:12:00;17.00;54.40
74617;DHT22;63123;50.906;4.198;2024-03-02T15:14:26;17.00;54.40
74617;DHT22;63123;50.906;4.198;2024-03-02T15:16:52;17.10;54.50
74617;DHT22;63123;50.906;4.198;2024-03-02T15:19:17;17.00;54.40
74617;DHT22;63123;50.906;4.198;2024-03-02T15:21:43;17.00;54.50
74617;DHT22;63123;50.906;4.198;2024-03-02T15:24:08;17.00;54.40
74617;DHT22;63123;50.906;4.198;2024-03-02T15:26:34;17.00;54.40
74617;DHT22;63123;50.906;4.198;2024-03-02T15:28:59;17.00;54.40
74617;DHT22;63123;50.906;4.198;2024-03-02T15:31:25;17.00;54.40
74617;DHT22;63123;50.906;4.198;2024-03-02T15:33:51;17.10;54.40
74617;DHT22;63123;50.906;4.198;2024-03-02T15:36:18;17.00;54.40
74617;DHT22;63123;50.906;4.198;2024-03-02T15:38:44;17.00;54.30